createdAt,value
2023-03-29T00:00:45.451Z,24.30
2023-03-29T00:03:18.135Z,23.50
2023-03-29T00:05:46.542Z,23.90
2023-03-29T00:08:14.918Z,19.90
2023-03-29T00:10:43.544Z,21.00
2023-03-29T00:13:11.607Z,26.10
2023-03-29T00:15:41.423Z,22.70
2023-03-29T00:18:09.467Z,12.40
2023-03-29T00:20:37.749Z,19.80
2023-03-29T00:23:06.875Z,15.60
2023-03-29T00:25:34.988Z,14.90
2023-03-29T00:28:03.048Z,14.90
2023-03-29T00:30:31.339Z,13.70
2023-03-29T00:32:59.526Z,18.10
2023-03-29T00:35:27.651Z,12.80
2023-03-29T00:37:57.880Z,16.90
2023-03-29T00:40:26.025Z,13.30
2023-03-29T00:42:56.350Z,14.90
2023-03-29T00:45:27.259Z,23.40
2023-03-29T00:47:57.404Z,17.40
2023-03-29T00:50:31.814Z,20.40
2023-03-29T00:53:14.771Z,21.40
2023-03-29T00:55:48.946Z,14.90
2023-03-29T00:58:21.244Z,20.50
2023-03-29T01:00:52.451Z,18.60
2023-03-29T01:03:25.111Z,15.00
2023-03-29T01:05:57.382Z,15.40
2023-03-29T01:08:32.176Z,16.30
2023-03-29T01:11:05.020Z,17.60
2023-03-29T01:13:41.753Z,12.90
2023-03-29T01:16:11.424Z,18.00
2023-03-29T01:18:39.829Z,14.20
2023-03-29T01:21:20.704Z,16.70
2023-03-29T01:24:06.850Z,14.90
2023-03-29T01:27:05.391Z,15.00
2023-03-29T01:29:41.108Z,14.40
2023-03-29T01:32:15.469Z,15.00
2023-03-29T01:34:43.532Z,12.70
2023-03-29T01:37:32.430Z,16.00
2023-03-29T01:40:00.833Z,13.00
2023-03-29T01:42:35.061Z,19.60
2023-03-29T01:45:13.379Z,16.60
2023-03-29T01:47:53.629Z,17.50
2023-03-29T01:50:33.769Z,12.30
2023-03-29T01:53:06.356Z,14.80
2023-03-29T01:55:38.636Z,15.10
2023-03-29T01:58:08.645Z,13.20
2023-03-29T02:00:37.737Z,17.30
2023-03-29T02:03:09.496Z,8.00
2023-03-29T02:05:39.542Z,9.10
2023-03-29T02:08:09.019Z,7.10
2023-03-29T02:10:37.704Z,12.20
2023-03-29T02:13:06.025Z,13.70
2023-03-29T02:15:34.876Z,12.30
2023-03-29T02:18:06.811Z,10.00
2023-03-29T02:23:09.125Z,8.20
2023-03-29T02:25:38.118Z,10.80
2023-03-29T02:28:07.019Z,11.90
2023-03-29T02:30:44.433Z,11.70
2023-03-29T02:33:15.874Z,13.50
2023-03-29T02:35:53.218Z,12.70
2023-03-29T02:38:25.699Z,12.30
2023-03-29T02:40:55.424Z,8.50
2023-03-29T02:43:25.859Z,9.20
2023-03-29T02:45:55.147Z,12.00
2023-03-29T02:48:25.540Z,11.50
2023-03-29T02:50:55.217Z,10.00
2023-03-29T02:53:26.525Z,10.80
2023-03-29T02:55:55.199Z,9.10
2023-03-29T02:58:26.631Z,9.70
2023-03-29T03:00:56.705Z,11.50
2023-03-29T03:03:25.731Z,12.20
2023-03-29T03:05:56.617Z,8.70
2023-03-29T03:08:24.812Z,7.90
2023-03-29T03:10:54.202Z,12.10
2023-03-29T03:13:22.367Z,7.40
2023-03-29T03:15:50.511Z,9.60
2023-03-29T03:18:18.844Z,12.90
2023-03-29T03:21:01.763Z,8.60
2023-03-29T03:23:30.635Z,8.00
2023-03-29T03:25:59.372Z,8.50
2023-03-29T03:28:27.561Z,12.30
2023-03-29T03:30:55.993Z,12.90
2023-03-29T03:33:24.181Z,12.90
2023-03-29T03:36:29.138Z,9.00
2023-03-29T03:38:57.796Z,7.30
2023-03-29T03:41:26.413Z,8.40
2023-03-29T03:43:54.966Z,10.00
2023-03-29T03:46:23.677Z,14.80
2023-03-29T03:48:52.291Z,7.20
2023-03-29T03:51:42.286Z,9.30
2023-03-29T03:54:10.554Z,11.00
2023-03-29T03:56:38.502Z,8.70
2023-03-29T03:59:12.423Z,9.10
2023-03-29T04:01:49.063Z,9.00
2023-03-29T04:04:23.534Z,12.20
2023-03-29T04:07:14.460Z,8.90
2023-03-29T04:10:20.949Z,10.30
2023-03-29T04:12:55.234Z,16.90
2023-03-29T04:15:23.236Z,12.50
2023-03-29T04:17:57.666Z,20.90
2023-03-29T04:20:30.966Z,26.10
2023-03-29T04:22:59.204Z,28.80
2023-03-29T04:25:28.069Z,27.20
2023-03-29T04:28:19.045Z,14.20
2023-03-29T04:30:52.814Z,18.00
2023-03-29T04:33:41.388Z,11.70
2023-03-29T04:36:09.619Z,14.30
2023-03-29T04:38:38.106Z,23.40
2023-03-29T04:41:06.579Z,25.50
2023-03-29T04:43:46.774Z,41.50
2023-03-29T04:46:28.737Z,30.90
2023-03-29T04:49:17.095Z,27.30
2023-03-29T04:51:48.196Z,26.30
2023-03-29T04:54:18.251Z,24.80
2023-03-29T04:57:05.989Z,23.60
2023-03-29T04:59:57.569Z,24.80
2023-03-29T05:02:51.694Z,33.40
2023-03-29T05:05:20.100Z,28.70
2023-03-29T05:07:48.746Z,28.40
2023-03-29T05:12:47.549Z,36.50
2023-03-29T05:15:15.727Z,18.80
2023-03-29T05:17:44.114Z,20.60
2023-03-29T05:20:13.246Z,17.70
2023-03-29T05:22:43.701Z,13.60
2023-03-29T05:25:17.123Z,11.70
2023-03-29T05:30:38.222Z,14.30
2023-03-29T05:33:16.600Z,25.30
2023-03-29T05:35:45.392Z,20.30
2023-03-29T05:38:13.827Z,17.00
2023-03-29T05:40:42.005Z,22.10
2023-03-29T05:43:29.045Z,18.60
2023-03-29T05:45:57.160Z,32.70
2023-03-29T05:48:25.975Z,55.10
2023-03-29T05:50:55.657Z,27.90
2023-03-29T05:53:25.032Z,27.70
2023-03-29T05:55:53.308Z,51.80
2023-03-29T05:58:23.042Z,20.50
2023-03-29T06:00:51.495Z,12.20
2023-03-29T06:03:51.395Z,23.80
2023-03-29T06:06:21.445Z,19.80
2023-03-29T06:08:50.715Z,14.90
2023-03-29T06:11:33.040Z,20.20
2023-03-29T06:14:13.934Z,13.00
2023-03-29T06:16:47.555Z,15.60
2023-03-29T06:19:16.128Z,11.70
2023-03-29T06:21:44.387Z,32.30
2023-03-29T06:24:14.168Z,34.00
2023-03-29T06:26:46.617Z,26.80
2023-03-29T06:29:15.745Z,19.00
2023-03-29T06:31:44.162Z,13.10
2023-03-29T06:34:22.614Z,13.00
2023-03-29T06:37:00.943Z,12.20
2023-03-29T06:39:29.094Z,15.80
2023-03-29T06:45:08.831Z,12.70
2023-03-29T06:47:40.773Z,12.40
2023-03-29T06:50:09.517Z,11.10
2023-03-29T06:52:58.576Z,13.50
2023-03-29T06:55:27.335Z,12.20
2023-03-29T06:57:55.746Z,10.40
2023-03-29T07:00:29.940Z,11.60
2023-03-29T07:03:10.663Z,11.20
2023-03-29T07:05:42.085Z,10.60
2023-03-29T07:08:14.362Z,14.20
2023-03-29T07:11:04.008Z,14.40
2023-03-29T07:13:42.686Z,9.00
2023-03-29T07:16:13.169Z,49.20
2023-03-29T07:19:01.640Z,19.10
2023-03-29T07:21:48.782Z,65.40
2023-03-29T07:24:17.631Z,8.70
2023-03-29T07:27:00.105Z,33.70
2023-03-29T07:29:34.464Z,16.10
2023-03-29T07:32:04.469Z,9.00
2023-03-29T07:34:52.625Z,11.60
2023-03-29T07:37:25.181Z,10.80
2023-03-29T07:39:53.739Z,6.10
2023-03-29T07:42:39.476Z,7.50
2023-03-29T07:45:09.739Z,6.70
2023-03-29T07:47:44.943Z,9.50
2023-03-29T07:50:17.535Z,7.20
2023-03-29T07:52:46.233Z,7.10
2023-03-29T07:55:15.962Z,9.10
2023-03-29T07:58:04.438Z,8.60
2023-03-29T08:00:34.231Z,11.40
2023-03-29T08:03:24.789Z,9.70
2023-03-29T08:05:56.189Z,8.70
2023-03-29T08:08:24.348Z,10.20
2023-03-29T08:10:57.253Z,8.90
2023-03-29T08:13:49.491Z,8.80
2023-03-29T08:16:35.862Z,8.90
2023-03-29T08:19:16.670Z,9.10
2023-03-29T08:22:03.993Z,7.40
2023-03-29T08:24:46.620Z,7.70
2023-03-29T08:27:22.579Z,8.40
2023-03-29T08:29:53.462Z,8.50
2023-03-29T08:32:41.808Z,8.60
2023-03-29T08:35:20.156Z,8.20
2023-03-29T08:38:08.455Z,7.50
2023-03-29T08:40:41.850Z,11.00
2023-03-29T08:43:39.259Z,7.10
2023-03-29T08:46:29.020Z,8.50
2023-03-29T08:49:17.122Z,7.80
2023-03-29T08:52:05.805Z,9.10
2023-03-29T08:54:43.798Z,7.10
2023-03-29T08:57:45.289Z,9.60
2023-03-29T09:00:24.935Z,5.50
2023-03-29T09:02:57.593Z,9.50
2023-03-29T09:05:44.681Z,7.60
2023-03-29T09:08:21.953Z,7.20
2023-03-29T09:11:09.526Z,8.70
2023-03-29T09:13:41.673Z,8.80
2023-03-29T09:16:36.373Z,11.10
2023-03-29T09:19:08.221Z,9.20
2023-03-29T09:21:52.351Z,8.60
2023-03-29T09:24:45.412Z,8.60
2023-03-29T09:27:32.491Z,9.10
2023-03-29T09:30:09.408Z,8.30
2023-03-29T09:33:11.269Z,6.80
2023-03-29T09:36:11.934Z,9.20
2023-03-29T09:38:44.200Z,6.30
2023-03-29T09:41:31.292Z,6.20
2023-03-29T09:44:05.678Z,6.40
2023-03-29T09:46:54.260Z,5.70
2023-03-29T09:49:27.619Z,6.20
2023-03-29T09:51:57.581Z,9.80
2023-03-29T09:54:26.147Z,8.70
2023-03-29T09:57:18.009Z,8.80
2023-03-29T09:59:49.616Z,7.80
2023-03-29T10:02:19.729Z,6.70
2023-03-29T10:04:53.590Z,6.60
2023-03-29T10:07:21.657Z,7.40
2023-03-29T10:09:56.113Z,5.70
2023-03-29T10:12:26.650Z,6.10
2023-03-29T10:14:55.937Z,6.30
2023-03-29T10:17:33.065Z,7.80
2023-03-29T10:20:06.429Z,8.10
2023-03-29T10:22:38.047Z,6.40
2023-03-29T10:25:12.826Z,10.70
2023-03-29T10:27:42.115Z,7.60
2023-03-29T10:30:28.620Z,10.10
2023-03-29T10:32:58.888Z,11.40
2023-03-29T10:35:35.384Z,7.40
2023-03-29T10:38:24.721Z,8.40
2023-03-29T10:40:53.395Z,9.40
2023-03-29T10:43:21.659Z,11.40
2023-03-29T10:45:50.953Z,14.70
2023-03-29T10:48:19.568Z,10.10
2023-03-29T10:50:57.470Z,8.20
2023-03-29T10:53:30.344Z,10.30
2023-03-29T10:56:01.561Z,16.40
2023-03-29T10:58:50.011Z,11.50
2023-03-29T11:01:20.173Z,7.70
2023-03-29T11:03:57.628Z,53.30
2023-03-29T11:06:37.589Z,9.80
2023-03-29T11:09:25.734Z,9.30
2023-03-29T11:12:04.447Z,11.70
2023-03-29T11:14:50.813Z,7.20
2023-03-29T11:17:41.945Z,8.70
2023-03-29T11:22:47.808Z,8.70
2023-03-29T11:25:19.203Z,7.00
2023-03-29T11:27:54.388Z,9.00
2023-03-29T11:30:25.363Z,10.40
2023-03-29T11:33:01.652Z,10.40
2023-03-29T11:35:34.767Z,9.40
2023-03-29T11:38:21.930Z,6.00
2023-03-29T11:41:13.672Z,7.70
2023-03-29T11:43:44.413Z,8.30
2023-03-29T11:46:17.015Z,9.00
2023-03-29T11:48:51.474Z,7.20
2023-03-29T11:51:23.084Z,7.40
2023-03-29T11:53:51.403Z,9.70
2023-03-29T11:56:23.949Z,14.00
2023-03-29T11:58:55.737Z,7.30
2023-03-29T12:01:44.335Z,7.80
2023-03-29T12:04:23.030Z,5.70
2023-03-29T12:07:06.769Z,7.70
2023-03-29T12:09:37.745Z,8.40
2023-03-29T12:14:49.479Z,8.30
2023-03-29T12:17:20.150Z,7.80
2023-03-29T12:20:07.153Z,8.20
2023-03-29T12:22:38.247Z,7.00
2023-03-29T12:25:09.191Z,8.70
2023-03-29T12:28:01.570Z,10.60
2023-03-29T12:30:38.650Z,8.40
2023-03-29T12:33:15.325Z,9.20
2023-03-29T12:36:02.749Z,9.00
2023-03-29T12:38:52.535Z,26.00
2023-03-29T12:41:49.261Z,16.40
2023-03-29T12:44:36.297Z,23.10
2023-03-29T12:47:27.880Z,16.60
2023-03-29T12:49:57.436Z,11.00
2023-03-29T12:52:33.688Z,10.00
2023-03-29T12:55:04.516Z,7.70
2023-03-29T12:57:40.098Z,9.80
2023-03-29T13:00:28.440Z,8.30
2023-03-29T13:03:17.640Z,10.40
2023-03-29T13:06:08.697Z,7.60
2023-03-29T13:08:57.048Z,11.40
2023-03-29T13:11:42.845Z,9.30
2023-03-29T13:14:16.965Z,14.00
2023-03-29T13:16:45.108Z,11.20
2023-03-29T13:19:32.124Z,10.00
2023-03-29T13:22:11.870Z,11.20
2023-03-29T13:25:01.360Z,9.80
2023-03-29T13:27:39.987Z,11.00
2023-03-29T13:30:17.935Z,11.30
2023-03-29T13:32:54.788Z,12.00
2023-03-29T13:35:29.884Z,8.80
2023-03-29T13:38:01.226Z,10.20
2023-03-29T13:40:44.364Z,9.40
2023-03-29T13:43:21.967Z,12.90
2023-03-29T13:45:59.450Z,11.90
2023-03-29T13:48:29.209Z,14.10
2023-03-29T13:51:02.190Z,9.40
2023-03-29T13:53:35.450Z,12.40
2023-03-29T13:56:05.822Z,15.10
2023-03-29T13:58:45.015Z,16.50
2023-03-29T14:01:40.978Z,11.90
2023-03-29T14:04:14.165Z,12.30
2023-03-29T14:06:50.075Z,13.90
2023-03-29T14:09:19.254Z,12.10
2023-03-29T14:11:56.942Z,12.50
2023-03-29T14:14:26.159Z,13.30
2023-03-29T14:16:57.474Z,11.40
2023-03-29T14:19:33.868Z,15.00
2023-03-29T14:22:02.525Z,13.90
2023-03-29T14:24:41.590Z,11.00
2023-03-29T14:27:15.279Z,12.70
2023-03-29T14:29:45.935Z,15.10
2023-03-29T14:32:16.565Z,16.80
2023-03-29T14:34:48.511Z,11.40
2023-03-29T14:37:18.812Z,16.60
2023-03-29T14:39:46.821Z,17.60
2023-03-29T14:42:19.809Z,18.00
2023-03-29T14:44:48.811Z,14.40
2023-03-29T14:47:21.622Z,15.40
2023-03-29T14:50:02.712Z,17.70
2023-03-29T15:01:23.799Z,17.70
2023-03-29T15:04:12.070Z,22.30
2023-03-29T15:06:41.749Z,16.90
2023-03-29T15:09:17.019Z,17.90
2023-03-29T15:11:51.294Z,17.30
2023-03-29T15:14:33.853Z,13.30
2023-03-29T15:17:22.073Z,11.20
2023-03-29T15:20:01.142Z,20.20
2023-03-29T15:22:33.518Z,11.80
2023-03-29T15:25:02.170Z,13.40
2023-03-29T15:27:41.685Z,11.40
2023-03-29T15:30:14.093Z,14.10
2023-03-29T15:32:42.630Z,65.80
2023-03-29T15:35:24.090Z,34.60
2023-03-29T15:37:53.548Z,45.70
2023-03-29T15:40:26.556Z,43.40
2023-03-29T15:42:55.271Z,27.20
2023-03-29T15:45:23.331Z,67.90
2023-03-29T15:47:51.891Z,152.00
2023-03-29T15:50:20.009Z,110.70
2023-03-29T15:52:48.392Z,76.90
2023-03-29T15:55:16.375Z,37.50
2023-03-29T15:57:46.646Z,17.00
2023-03-29T16:00:16.954Z,16.90
2023-03-29T16:02:45.059Z,13.20
2023-03-29T16:05:13.706Z,13.30
2023-03-29T16:07:41.939Z,16.90
2023-03-29T16:10:10.557Z,17.10
2023-03-29T16:12:39.303Z,16.80
2023-03-29T16:15:17.493Z,17.80
2023-03-29T16:17:45.685Z,19.00
2023-03-29T16:20:20.202Z,27.90
2023-03-29T16:22:49.055Z,50.60
2023-03-29T16:25:18.609Z,33.10
2023-03-29T16:27:47.067Z,60.40
2023-03-29T16:30:15.614Z,88.20
2023-03-29T16:32:43.854Z,44.70
2023-03-29T16:35:32.982Z,35.20
2023-03-29T16:38:01.018Z,33.10
2023-03-29T16:40:29.280Z,72.40
2023-03-29T16:42:57.308Z,43.30
2023-03-29T16:45:26.057Z,90.10
2023-03-29T16:47:54.735Z,97.80
2023-03-29T16:50:23.205Z,58.40
2023-03-29T16:52:54.259Z,90.50
2023-03-29T16:55:22.447Z,98.20
2023-03-29T16:57:51.130Z,50.00
2023-03-29T17:00:20.415Z,52.20
2023-03-29T17:02:49.826Z,121.50
2023-03-29T17:05:18.752Z,32.90
2023-03-29T17:07:47.063Z,85.70
2023-03-29T17:10:15.703Z,51.90
2023-03-29T17:12:43.692Z,53.20
2023-03-29T17:15:11.826Z,57.70
2023-03-29T17:17:40.321Z,69.40
2023-03-29T17:20:11.844Z,29.60
2023-03-29T17:22:40.844Z,21.60
2023-03-29T17:25:09.305Z,17.90
2023-03-29T17:27:38.124Z,21.90
2023-03-29T17:30:07.011Z,20.40
2023-03-29T17:32:35.833Z,14.10
2023-03-29T17:35:04.020Z,19.00
2023-03-29T17:37:32.043Z,21.20
2023-03-29T17:40:00.215Z,21.10
2023-03-29T17:42:28.621Z,23.30
2023-03-29T17:44:57.047Z,20.00
2023-03-29T17:47:25.090Z,37.30
2023-03-29T17:49:53.406Z,43.00
2023-03-29T17:52:21.753Z,45.00
2023-03-29T17:54:49.765Z,31.50
2023-03-29T17:57:18.153Z,37.20
2023-03-29T17:59:46.266Z,32.40
2023-03-29T18:02:18.382Z,48.60
2023-03-29T18:04:46.875Z,27.50
2023-03-29T18:07:15.568Z,31.30
2023-03-29T18:09:43.873Z,31.40
2023-03-29T18:12:12.622Z,33.30
2023-03-29T18:14:40.832Z,46.40
2023-03-29T18:17:16.558Z,21.40
2023-03-29T18:19:49.862Z,25.50
2023-03-29T18:22:20.877Z,29.60
2023-03-29T18:24:51.955Z,61.50
2023-03-29T18:27:20.554Z,64.60
2023-03-29T18:30:06.575Z,36.00
2023-03-29T18:32:39.574Z,48.40
2023-03-29T18:35:30.752Z,46.90
2023-03-29T18:38:05.295Z,111.70
2023-03-29T18:40:40.913Z,90.00
2023-03-29T18:43:09.273Z,70.50
2023-03-29T18:45:57.567Z,55.90
2023-03-29T18:48:49.325Z,39.90
2023-03-29T18:51:31.424Z,56.30
2023-03-29T18:54:22.524Z,30.10
2023-03-29T18:57:13.588Z,35.60
2023-03-29T18:59:41.992Z,41.50
2023-03-29T19:02:17.715Z,29.40
2023-03-29T19:04:50.005Z,22.60
2023-03-29T19:07:20.629Z,41.50
2023-03-29T19:09:51.784Z,33.20
2023-03-29T19:12:37.494Z,17.80
2023-03-29T19:15:08.366Z,17.90
2023-03-29T19:17:46.792Z,10.80
2023-03-29T19:23:41.100Z,10.40
2023-03-29T19:26:27.768Z,23.60
2023-03-29T19:29:00.520Z,18.60
2023-03-29T19:31:39.048Z,15.50
2023-03-29T19:34:09.747Z,12.70
2023-03-29T19:36:40.714Z,10.70
2023-03-29T19:39:34.619Z,14.80
2023-03-29T19:42:05.046Z,15.30
2023-03-29T19:44:38.358Z,25.40
2023-03-29T19:47:06.865Z,14.50
2023-03-29T19:49:36.794Z,17.40
2023-03-29T19:52:08.511Z,15.00
2023-03-29T19:54:44.260Z,17.90
2023-03-29T19:57:33.831Z,12.10
2023-03-29T20:00:14.929Z,14.20
2023-03-29T20:02:45.385Z,12.80
2023-03-29T20:05:13.976Z,11.50
2023-03-29T20:07:42.253Z,10.20
2023-03-29T20:10:11.150Z,11.70
2023-03-29T20:12:39.359Z,13.50
2023-03-29T20:15:07.928Z,15.30
2023-03-29T20:17:40.937Z,12.70
2023-03-29T20:20:23.922Z,16.00
2023-03-29T20:23:04.740Z,14.30
2023-03-29T20:25:37.919Z,17.60
2023-03-29T20:28:11.395Z,17.40
2023-03-29T20:30:40.279Z,11.50
2023-03-29T20:33:08.916Z,9.60
2023-03-29T20:35:44.552Z,12.60
2023-03-29T20:38:12.698Z,18.40
2023-03-29T20:40:41.923Z,14.60
2023-03-29T20:43:18.466Z,14.50
2023-03-29T20:45:53.917Z,11.70
2023-03-29T20:48:32.311Z,12.60
2023-03-29T20:51:03.217Z,14.80
2023-03-29T20:53:34.314Z,12.10
2023-03-29T20:56:06.614Z,15.30
2023-03-29T20:58:34.699Z,12.50
2023-03-29T21:01:14.545Z,11.60
2023-03-29T21:04:22.053Z,9.10
2023-03-29T21:07:13.810Z,10.00
2023-03-29T21:10:02.896Z,8.90
2023-03-29T21:15:27.719Z,9.50
2023-03-29T21:17:58.427Z,8.70
2023-03-29T21:20:31.853Z,10.60
2023-03-29T21:23:02.192Z,9.80
2023-03-29T21:25:50.313Z,9.70
2023-03-29T21:28:29.050Z,14.10
2023-03-29T21:31:03.907Z,9.80
2023-03-29T21:33:32.424Z,9.10
2023-03-29T21:36:09.961Z,10.40
2023-03-29T21:38:48.131Z,10.90
2023-03-29T21:41:19.376Z,11.30
2023-03-29T21:46:17.788Z,16.00
2023-03-29T21:49:00.689Z,17.10
2023-03-29T21:51:31.280Z,14.40
2023-03-29T21:54:12.040Z,11.40
2023-03-29T21:56:42.571Z,14.80
2023-03-29T21:59:11.321Z,9.80
2023-03-29T22:01:39.699Z,11.40
2023-03-29T22:04:11.087Z,14.40
2023-03-29T22:09:32.373Z,13.60
2023-03-29T22:12:04.675Z,11.50
2023-03-29T22:14:36.088Z,12.00
2023-03-29T22:17:09.830Z,10.90
2023-03-29T22:19:53.589Z,9.70
2023-03-29T22:22:25.798Z,12.50
2023-03-29T22:24:55.015Z,10.60
2023-03-29T22:27:23.636Z,10.80
2023-03-29T22:30:01.946Z,10.30
2023-03-29T22:32:50.660Z,10.60
2023-03-29T22:35:33.822Z,11.30
2023-03-29T22:38:05.155Z,11.60
2023-03-29T22:40:41.909Z,11.50
2023-03-29T22:43:12.963Z,13.10
2023-03-29T22:46:01.081Z,13.10
2023-03-29T22:48:45.790Z,9.90
2023-03-29T22:51:22.912Z,11.00
2023-03-29T22:53:51.680Z,13.00
2023-03-29T22:56:22.190Z,11.90
2023-03-29T22:58:53.938Z,11.30
2023-03-29T23:01:22.426Z,10.20
2023-03-29T23:03:56.859Z,11.50
2023-03-29T23:06:27.635Z,10.90
2023-03-29T23:08:58.688Z,13.60
2023-03-29T23:11:29.553Z,9.30
2023-03-29T23:13:57.785Z,9.30
2023-03-29T23:16:25.974Z,11.40
2023-03-29T23:19:28.039Z,9.70
2023-03-29T23:22:06.343Z,9.30
2023-03-29T23:24:36.933Z,7.50
2023-03-29T23:27:15.480Z,9.60
2023-03-29T23:29:48.992Z,9.90
2023-03-29T23:32:17.016Z,10.30
2023-03-29T23:34:45.636Z,9.70
2023-03-29T23:37:16.633Z,8.40
2023-03-29T23:39:44.601Z,9.70
2023-03-29T23:42:18.401Z,16.00
2023-03-29T23:44:46.351Z,9.00
2023-03-29T23:47:22.063Z,11.80
2023-03-29T23:49:53.417Z,13.10
2023-03-29T23:52:34.740Z,8.60
2023-03-29T23:57:35.272Z,10.40
